Detroit, Michigan
Traffic Map
Current Weather Conditions
Detroit, Michigan
Overcast Rain Showers
Overcast
21°
Feels Like: 21°
Wind Chill: 21° Ceiling: 2100
Heat Index: 21° Visibility: 6mi
Dew Point: 20° Wind: 9mph
Humidity: 94% Direction: 220° (SW)
Pressure: 29.89in Gusts: 17mph
Raw Report DataCYQG 021300Z 22008G15KT 6SM -SHRA BR FEW012 BKN021 OVC100 21/20 A2989 RMK CF2CU4AC2 SLP119
Traffic Incident Summary
Active as of:
Severity:
Category:
InformationThere was an issue retrieving the traffic information for this location. Please try a different location or try again shortly.
Advertisements
Track Severe Weather on mobile